sensor_id;sensor_type;location;lat;lon;timestamp;P1;durP1;ratioP1;P2;durP2;ratioP2
23608;SDS011;11982;50.810;4.442;2022-09-09T00:00:20;8.23;;;3.10;;
23608;SDS011;11982;50.810;4.442;2022-09-09T00:03:11;4.88;;;2.55;;
23608;SDS011;11982;50.810;4.442;2022-09-09T00:08:07;8.38;;;2.85;;
23608;SDS011;11982;50.810;4.442;2022-09-09T00:10:39;10.85;;;2.83;;
23608;SDS011;11982;50.810;4.442;2022-09-09T00:21:17;6.60;;;2.10;;
23608;SDS011;11982;50.810;4.442;2022-09-09T00:23:46;9.23;;;2.63;;
23608;SDS011;11982;50.810;4.442;2022-09-09T00:29:00;9.43;;;2.40;;
23608;SDS011;11982;50.810;4.442;2022-09-09T00:31:34;9.55;;;2.40;;
23608;SDS011;11982;50.810;4.442;2022-09-09T00:34:12;7.15;;;2.40;;
23608;SDS011;11982;50.810;4.442;2022-09-09T00:36:41;12.82;;;3.67;;
23608;SDS011;11982;50.810;4.442;2022-09-09T00:44:33;7.80;;;2.42;;
23608;SDS011;11982;50.810;4.442;2022-09-09T00:50:28;9.20;;;2.47;;
23608;SDS011;11982;50.810;4.442;2022-09-09T00:53:22;13.60;;;3.00;;
23608;SDS011;11982;50.810;4.442;2022-09-09T00:56:24;13.52;;;2.85;;
23608;SDS011;11982;50.810;4.442;2022-09-09T01:01:35;10.43;;;2.30;;
23608;SDS011;11982;50.810;4.442;2022-09-09T01:04:01;9.35;;;2.50;;
23608;SDS011;11982;50.810;4.442;2022-09-09T01:06:37;6.10;;;2.40;;
23608;SDS011;11982;50.810;4.442;2022-09-09T01:17:20;11.43;;;2.33;;
23608;SDS011;11982;50.810;4.442;2022-09-09T01:25:30;15.25;;;3.13;;
23608;SDS011;11982;50.810;4.442;2022-09-09T01:28:13;9.85;;;3.08;;
23608;SDS011;11982;50.810;4.442;2022-09-09T01:30:43;5.55;;;2.67;;
23608;SDS011;11982;50.810;4.442;2022-09-09T01:33:13;10.95;;;2.80;;
23608;SDS011;11982;50.810;4.442;2022-09-09T01:38:28;12.27;;;3.05;;
23608;SDS011;11982;50.810;4.442;2022-09-09T01:40:56;8.82;;;2.60;;
23608;SDS011;11982;50.810;4.442;2022-09-09T01:43:23;13.18;;;3.00;;
23608;SDS011;11982;50.810;4.442;2022-09-09T01:45:51;8.75;;;3.13;;
23608;SDS011;11982;50.810;4.442;2022-09-09T01:48:19;15.18;;;3.28;;
23608;SDS011;11982;50.810;4.442;2022-09-09T01:50:47;17.25;;;4.18;;
23608;SDS011;11982;50.810;4.442;2022-09-09T01:53:13;11.30;;;3.35;;
23608;SDS011;11982;50.810;4.442;2022-09-09T01:55:42;10.70;;;3.15;;
23608;SDS011;11982;50.810;4.442;2022-09-09T01:58:19;8.57;;;3.30;;
23608;SDS011;11982;50.810;4.442;2022-09-09T02:00:51;10.20;;;3.10;;
23608;SDS011;11982;50.810;4.442;2022-09-09T02:03:25;16.08;;;3.22;;
23608;SDS011;11982;50.810;4.442;2022-09-09T02:06:00;8.57;;;3.05;;
23608;SDS011;11982;50.810;4.442;2022-09-09T02:11:07;15.52;;;3.65;;
23608;SDS011;11982;50.810;4.442;2022-09-09T02:13:38;10.65;;;3.15;;
23608;SDS011;11982;50.810;4.442;2022-09-09T02:21:37;14.43;;;3.63;;
23608;SDS011;11982;50.810;4.442;2022-09-09T02:24:07;14.35;;;3.13;;
23608;SDS011;11982;50.810;4.442;2022-09-09T02:26:36;13.90;;;3.70;;
23608;SDS011;11982;50.810;4.442;2022-09-09T02:29:06;15.98;;;3.70;;
23608;SDS011;11982;50.810;4.442;2022-09-09T02:31:35;15.57;;;3.63;;
23608;SDS011;11982;50.810;4.442;2022-09-09T02:34:03;11.05;;;3.90;;
23608;SDS011;11982;50.810;4.442;2022-09-09T02:36:32;18.63;;;4.40;;
23608;SDS011;11982;50.810;4.442;2022-09-09T02:39:00;21.08;;;4.53;;
23608;SDS011;11982;50.810;4.442;2022-09-09T02:41:28;16.30;;;3.85;;
23608;SDS011;11982;50.810;4.442;2022-09-09T02:44:00;14.13;;;3.92;;
23608;SDS011;11982;50.810;4.442;2022-09-09T02:49:10;21.67;;;4.47;;
23608;SDS011;11982;50.810;4.442;2022-09-09T02:56:52;20.02;;;4.00;;
23608;SDS011;11982;50.810;4.442;2022-09-09T02:59:21;15.38;;;3.53;;
23608;SDS011;11982;50.810;4.442;2022-09-09T03:01:47;18.17;;;4.10;;
23608;SDS011;11982;50.810;4.442;2022-09-09T03:04:13;23.75;;;4.50;;
23608;SDS011;11982;50.810;4.442;2022-09-09T03:06:39;16.23;;;4.07;;
23608;SDS011;11982;50.810;4.442;2022-09-09T03:09:04;24.83;;;3.83;;
23608;SDS011;11982;50.810;4.442;2022-09-09T03:11:30;17.77;;;4.03;;
23608;SDS011;11982;50.810;4.442;2022-09-09T03:13:56;22.52;;;4.20;;
23608;SDS011;11982;50.810;4.442;2022-09-09T03:16:22;18.10;;;4.20;;
23608;SDS011;11982;50.810;4.442;2022-09-09T03:18:48;25.83;;;4.57;;
23608;SDS011;11982;50.810;4.442;2022-09-09T03:21:14;20.15;;;4.53;;
23608;SDS011;11982;50.810;4.442;2022-09-09T03:23:40;19.02;;;4.63;;
23608;SDS011;11982;50.810;4.442;2022-09-09T03:26:06;25.95;;;5.18;;
23608;SDS011;11982;50.810;4.442;2022-09-09T03:28:32;17.38;;;4.38;;
23608;SDS011;11982;50.810;4.442;2022-09-09T03:31:02;24.17;;;5.10;;
23608;SDS011;11982;50.810;4.442;2022-09-09T03:33:28;20.80;;;4.43;;
23608;SDS011;11982;50.810;4.442;2022-09-09T03:35:55;23.95;;;4.47;;
23608;SDS011;11982;50.810;4.442;2022-09-09T03:38:22;19.20;;;4.68;;
23608;SDS011;11982;50.810;4.442;2022-09-09T03:40:51;24.63;;;4.88;;
23608;SDS011;11982;50.810;4.442;2022-09-09T03:43:21;17.02;;;5.03;;
23608;SDS011;11982;50.810;4.442;2022-09-09T03:45:47;19.13;;;4.60;;
23608;SDS011;11982;50.810;4.442;2022-09-09T03:48:14;15.90;;;4.30;;
23608;SDS011;11982;50.810;4.442;2022-09-09T03:50:50;19.67;;;4.70;;
23608;SDS011;11982;50.810;4.442;2022-09-09T03:53:17;21.83;;;5.35;;
23608;SDS011;11982;50.810;4.442;2022-09-09T03:55:45;16.67;;;4.15;;
23608;SDS011;11982;50.810;4.442;2022-09-09T03:58:12;32.40;;;5.55;;
23608;SDS011;11982;50.810;4.442;2022-09-09T04:00:39;25.20;;;5.70;;
23608;SDS011;11982;50.810;4.442;2022-09-09T04:03:10;21.77;;;4.55;;
23608;SDS011;11982;50.810;4.442;2022-09-09T04:05:36;21.27;;;4.72;;
23608;SDS011;11982;50.810;4.442;2022-09-09T04:08:07;18.10;;;5.15;;
23608;SDS011;11982;50.810;4.442;2022-09-09T04:10:33;20.00;;;5.10;;
23608;SDS011;11982;50.810;4.442;2022-09-09T04:13:02;22.48;;;5.10;;
23608;SDS011;11982;50.810;4.442;2022-09-09T04:15:29;22.63;;;5.03;;
23608;SDS011;11982;50.810;4.442;2022-09-09T04:17:55;29.63;;;5.65;;
23608;SDS011;11982;50.810;4.442;2022-09-09T04:20:21;23.42;;;5.45;;
23608;SDS011;11982;50.810;4.442;2022-09-09T04:22:47;23.05;;;5.72;;
23608;SDS011;11982;50.810;4.442;2022-09-09T04:25:13;26.38;;;5.13;;
23608;SDS011;11982;50.810;4.442;2022-09-09T04:27:39;23.42;;;4.80;;
23608;SDS011;11982;50.810;4.442;2022-09-09T04:30:05;19.95;;;5.55;;
23608;SDS011;11982;50.810;4.442;2022-09-09T04:32:33;21.35;;;5.43;;
23608;SDS011;11982;50.810;4.442;2022-09-09T04:34:58;18.20;;;5.25;;
23608;SDS011;11982;50.810;4.442;2022-09-09T04:37:24;21.10;;;5.45;;
23608;SDS011;11982;50.810;4.442;2022-09-09T04:39:49;16.98;;;5.40;;
23608;SDS011;11982;50.810;4.442;2022-09-09T04:42:15;22.05;;;5.60;;
23608;SDS011;11982;50.810;4.442;2022-09-09T04:44:42;26.42;;;6.75;;
23608;SDS011;11982;50.810;4.442;2022-09-09T04:47:08;23.15;;;6.00;;
23608;SDS011;11982;50.810;4.442;2022-09-09T04:49:34;22.77;;;5.22;;
23608;SDS011;11982;50.810;4.442;2022-09-09T04:52:01;21.85;;;6.30;;
23608;SDS011;11982;50.810;4.442;2022-09-09T04:54:28;23.90;;;5.88;;
23608;SDS011;11982;50.810;4.442;2022-09-09T04:56:54;28.42;;;6.53;;
23608;SDS011;11982;50.810;4.442;2022-09-09T04:59:20;30.13;;;6.65;;
23608;SDS011;11982;50.810;4.442;2022-09-09T05:01:46;23.95;;;6.85;;
23608;SDS011;11982;50.810;4.442;2022-09-09T05:04:13;30.80;;;6.78;;
23608;SDS011;11982;50.810;4.442;2022-09-09T05:06:41;27.50;;;7.75;;
23608;SDS011;11982;50.810;4.442;2022-09-09T05:09:07;31.13;;;6.50;;
23608;SDS011;11982;50.810;4.442;2022-09-09T05:11:33;25.05;;;6.72;;
23608;SDS011;11982;50.810;4.442;2022-09-09T05:14:02;22.05;;;7.03;;
23608;SDS011;11982;50.810;4.442;2022-09-09T05:16:28;19.92;;;6.63;;
23608;SDS011;11982;50.810;4.442;2022-09-09T05:18:54;25.67;;;7.35;;
23608;SDS011;11982;50.810;4.442;2022-09-09T05:21:20;32.15;;;7.00;;
23608;SDS011;11982;50.810;4.442;2022-09-09T05:23:48;24.05;;;6.82;;
23608;SDS011;11982;50.810;4.442;2022-09-09T05:26:16;24.25;;;7.35;;
23608;SDS011;11982;50.810;4.442;2022-09-09T05:28:43;21.90;;;6.18;;
23608;SDS011;11982;50.810;4.442;2022-09-09T05:31:10;21.38;;;6.72;;
23608;SDS011;11982;50.810;4.442;2022-09-09T05:33:37;28.88;;;7.18;;
23608;SDS011;11982;50.810;4.442;2022-09-09T05:38:33;24.42;;;6.05;;
23608;SDS011;11982;50.810;4.442;2022-09-09T05:40:59;24.77;;;5.57;;
23608;SDS011;11982;50.810;4.442;2022-09-09T05:43:27;25.17;;;5.82;;
23608;SDS011;11982;50.810;4.442;2022-09-09T05:48:31;16.05;;;5.63;;
23608;SDS011;11982;50.810;4.442;2022-09-09T05:50:58;20.63;;;5.22;;
23608;SDS011;11982;50.810;4.442;2022-09-09T05:53:25;25.25;;;5.70;;
23608;SDS011;11982;50.810;4.442;2022-09-09T05:55:58;20.83;;;5.65;;
23608;SDS011;11982;50.810;4.442;2022-09-09T05:58:29;28.80;;;6.45;;
23608;SDS011;11982;50.810;4.442;2022-09-09T06:01:02;15.32;;;5.50;;
23608;SDS011;11982;50.810;4.442;2022-09-09T06:03:36;24.63;;;5.60;;
23608;SDS011;11982;50.810;4.442;2022-09-09T06:06:05;26.15;;;6.15;;
23608;SDS011;11982;50.810;4.442;2022-09-09T06:08:37;31.50;;;6.72;;
23608;SDS011;11982;50.810;4.442;2022-09-09T06:11:05;22.60;;;5.60;;
23608;SDS011;11982;50.810;4.442;2022-09-09T06:13:31;28.50;;;5.80;;
23608;SDS011;11982;50.810;4.442;2022-09-09T06:15:57;23.02;;;5.63;;
23608;SDS011;11982;50.810;4.442;2022-09-09T06:18:23;28.55;;;4.90;;
23608;SDS011;11982;50.810;4.442;2022-09-09T06:20:53;23.90;;;4.88;;
23608;SDS011;11982;50.810;4.442;2022-09-09T06:23:26;20.70;;;5.20;;
23608;SDS011;11982;50.810;4.442;2022-09-09T06:26:06;22.30;;;5.43;;
23608;SDS011;11982;50.810;4.442;2022-09-09T06:28:34;24.95;;;4.95;;
23608;SDS011;11982;50.810;4.442;2022-09-09T06:31:02;25.45;;;4.95;;
23608;SDS011;11982;50.810;4.442;2022-09-09T06:33:33;22.63;;;4.80;;
23608;SDS011;11982;50.810;4.442;2022-09-09T06:36:00;18.00;;;4.35;;
23608;SDS011;11982;50.810;4.442;2022-09-09T06:38:27;14.90;;;4.50;;
23608;SDS011;11982;50.810;4.442;2022-09-09T06:40:55;18.13;;;4.53;;
23608;SDS011;11982;50.810;4.442;2022-09-09T06:43:25;15.70;;;4.25;;
23608;SDS011;11982;50.810;4.442;2022-09-09T06:48:20;15.05;;;3.53;;
23608;SDS011;11982;50.810;4.442;2022-09-09T06:50:46;26.92;;;4.57;;
23608;SDS011;11982;50.810;4.442;2022-09-09T06:53:12;14.07;;;3.38;;
23608;SDS011;11982;50.810;4.442;2022-09-09T06:55:41;19.17;;;3.30;;
23608;SDS011;11982;50.810;4.442;2022-09-09T06:58:09;13.68;;;3.05;;
23608;SDS011;11982;50.810;4.442;2022-09-09T07:00:34;13.13;;;3.25;;
23608;SDS011;11982;50.810;4.442;2022-09-09T07:03:02;18.33;;;4.28;;
23608;SDS011;11982;50.810;4.442;2022-09-09T07:05:28;19.38;;;3.67;;
23608;SDS011;11982;50.810;4.442;2022-09-09T07:07:54;24.17;;;3.70;;
23608;SDS011;11982;50.810;4.442;2022-09-09T07:10:19;14.45;;;3.50;;
23608;SDS011;11982;50.810;4.442;2022-09-09T07:12:49;21.60;;;3.92;;
23608;SDS011;11982;50.810;4.442;2022-09-09T07:15:16;18.20;;;3.03;;
23608;SDS011;11982;50.810;4.442;2022-09-09T07:17:43;12.45;;;3.58;;
23608;SDS011;11982;50.810;4.442;2022-09-09T07:20:09;14.27;;;2.85;;
23608;SDS011;11982;50.810;4.442;2022-09-09T07:22:35;14.90;;;3.60;;
23608;SDS011;11982;50.810;4.442;2022-09-09T07:25:01;18.33;;;4.05;;
23608;SDS011;11982;50.810;4.442;2022-09-09T07:27:27;18.98;;;3.40;;
23608;SDS011;11982;50.810;4.442;2022-09-09T07:29:52;16.98;;;3.03;;
23608;SDS011;11982;50.810;4.442;2022-09-09T07:32:19;8.27;;;2.83;;
23608;SDS011;11982;50.810;4.442;2022-09-09T07:34:45;10.52;;;2.70;;
23608;SDS011;11982;50.810;4.442;2022-09-09T07:37:12;18.92;;;3.40;;
23608;SDS011;11982;50.810;4.442;2022-09-09T07:39:38;19.33;;;3.65;;
23608;SDS011;11982;50.810;4.442;2022-09-09T07:42:04;16.77;;;3.40;;
23608;SDS011;11982;50.810;4.442;2022-09-09T07:44:30;19.40;;;3.83;;
23608;SDS011;11982;50.810;4.442;2022-09-09T07:46:59;43.65;;;5.47;;
23608;SDS011;11982;50.810;4.442;2022-09-09T07:49:26;25.92;;;4.00;;
23608;SDS011;11982;50.810;4.442;2022-09-09T07:51:51;20.40;;;4.13;;
23608;SDS011;11982;50.810;4.442;2022-09-09T07:54:18;10.52;;;3.55;;
23608;SDS011;11982;50.810;4.442;2022-09-09T07:56:46;21.67;;;4.65;;
23608;SDS011;11982;50.810;4.442;2022-09-09T07:59:12;11.30;;;3.40;;
23608;SDS011;11982;50.810;4.442;2022-09-09T08:01:42;24.48;;;4.95;;
23608;SDS011;11982;50.810;4.442;2022-09-09T08:04:11;17.15;;;4.07;;
23608;SDS011;11982;50.810;4.442;2022-09-09T08:06:49;19.75;;;4.18;;
23608;SDS011;11982;50.810;4.442;2022-09-09T08:09:18;17.55;;;3.70;;
23608;SDS011;11982;50.810;4.442;2022-09-09T08:11:44;19.88;;;4.25;;
23608;SDS011;11982;50.810;4.442;2022-09-09T08:14:10;26.15;;;4.53;;
23608;SDS011;11982;50.810;4.442;2022-09-09T08:16:38;60.13;;;5.60;;
23608;SDS011;11982;50.810;4.442;2022-09-09T08:19:05;20.80;;;4.15;;
23608;SDS011;11982;50.810;4.442;2022-09-09T08:21:32;22.00;;;4.15;;
23608;SDS011;11982;50.810;4.442;2022-09-09T08:24:01;20.67;;;3.85;;
23608;SDS011;11982;50.810;4.442;2022-09-09T08:26:28;11.30;;;3.20;;
23608;SDS011;11982;50.810;4.442;2022-09-09T08:28:56;17.00;;;3.55;;
23608;SDS011;11982;50.810;4.442;2022-09-09T08:31:24;54.80;;;4.47;;
23608;SDS011;11982;50.810;4.442;2022-09-09T08:33:53;19.13;;;3.28;;
23608;SDS011;11982;50.810;4.442;2022-09-09T08:36:20;14.43;;;2.97;;
23608;SDS011;11982;50.810;4.442;2022-09-09T08:38:51;18.65;;;3.38;;
23608;SDS011;11982;50.810;4.442;2022-09-09T08:41:28;17.52;;;3.78;;
23608;SDS011;11982;50.810;4.442;2022-09-09T08:52:39;14.93;;;3.70;;
23608;SDS011;11982;50.810;4.442;2022-09-09T08:55:26;15.30;;;3.72;;
23608;SDS011;11982;50.810;4.442;2022-09-09T08:58:15;13.73;;;3.72;;
23608;SDS011;11982;50.810;4.442;2022-09-09T09:03:48;16.05;;;3.53;;
23608;SDS011;11982;50.810;4.442;2022-09-09T09:12:01;20.15;;;4.00;;
23608;SDS011;11982;50.810;4.442;2022-09-09T09:14:34;15.05;;;3.55;;
23608;SDS011;11982;50.810;4.442;2022-09-09T09:17:03;17.67;;;3.50;;
23608;SDS011;11982;50.810;4.442;2022-09-09T09:19:38;19.70;;;3.63;;
23608;SDS011;11982;50.810;4.442;2022-09-09T09:27:31;18.98;;;3.88;;
23608;SDS011;11982;50.810;4.442;2022-09-09T09:30:17;14.95;;;3.95;;
23608;SDS011;11982;50.810;4.442;2022-09-09T09:32:54;20.15;;;3.95;;
23608;SDS011;11982;50.810;4.442;2022-09-09T09:35:23;24.73;;;5.10;;
23608;SDS011;11982;50.810;4.442;2022-09-09T09:37:49;12.35;;;4.07;;
23608;SDS011;11982;50.810;4.442;2022-09-09T09:40:15;19.00;;;4.10;;
23608;SDS011;11982;50.810;4.442;2022-09-09T09:43:00;13.15;;;3.83;;
23608;SDS011;11982;50.810;4.442;2022-09-09T09:45:28;16.38;;;4.75;;
23608;SDS011;11982;50.810;4.442;2022-09-09T09:48:08;24.92;;;5.60;;
23608;SDS011;11982;50.810;4.442;2022-09-09T09:50:39;23.50;;;4.72;;
23608;SDS011;11982;50.810;4.442;2022-09-09T09:53:31;21.88;;;4.40;;
23608;SDS011;11982;50.810;4.442;2022-09-09T09:55:59;16.13;;;4.30;;
23608;SDS011;11982;50.810;4.442;2022-09-09T09:58:30;16.25;;;4.13;;
23608;SDS011;11982;50.810;4.442;2022-09-09T10:00:58;16.52;;;3.70;;
23608;SDS011;11982;50.810;4.442;2022-09-09T10:03:29;12.20;;;3.97;;
23608;SDS011;11982;50.810;4.442;2022-09-09T10:06:02;19.10;;;3.97;;
23608;SDS011;11982;50.810;4.442;2022-09-09T10:08:28;13.25;;;3.55;;
23608;SDS011;11982;50.810;4.442;2022-09-09T10:11:00;11.68;;;3.65;;
23608;SDS011;11982;50.810;4.442;2022-09-09T10:19:21;11.90;;;3.95;;
23608;SDS011;11982;50.810;4.442;2022-09-09T10:30:56;14.00;;;3.80;;
23608;SDS011;11982;50.810;4.442;2022-09-09T10:36:24;21.77;;;3.95;;
23608;SDS011;11982;50.810;4.442;2022-09-09T10:39:16;11.32;;;3.70;;
23608;SDS011;11982;50.810;4.442;2022-09-09T10:47:25;9.30;;;3.05;;
23608;SDS011;11982;50.810;4.442;2022-09-09T10:55:39;14.70;;;3.33;;
23608;SDS011;11982;50.810;4.442;2022-09-09T10:58:10;19.27;;;3.40;;
23608;SDS011;11982;50.810;4.442;2022-09-09T11:00:46;20.67;;;3.45;;
23608;SDS011;11982;50.810;4.442;2022-09-09T11:03:37;25.10;;;3.88;;
23608;SDS011;11982;50.810;4.442;2022-09-09T11:06:05;13.98;;;3.10;;
23608;SDS011;11982;50.810;4.442;2022-09-09T11:08:37;19.33;;;3.72;;
23608;SDS011;11982;50.810;4.442;2022-09-09T11:11:07;21.10;;;3.78;;
23608;SDS011;11982;50.810;4.442;2022-09-09T11:14:01;15.77;;;3.28;;
23608;SDS011;11982;50.810;4.442;2022-09-09T11:21:53;8.77;;;2.80;;
23608;SDS011;11982;50.810;4.442;2022-09-09T11:24:28;27.35;;;3.55;;
23608;SDS011;11982;50.810;4.442;2022-09-09T11:27:20;9.88;;;2.30;;
23608;SDS011;11982;50.810;4.442;2022-09-09T11:30:17;11.30;;;2.83;;
23608;SDS011;11982;50.810;4.442;2022-09-09T11:38:14;17.85;;;3.47;;
23608;SDS011;11982;50.810;4.442;2022-09-09T11:40:44;16.25;;;3.05;;
23608;SDS011;11982;50.810;4.442;2022-09-09T11:43:12;22.27;;;3.20;;
23608;SDS011;11982;50.810;4.442;2022-09-09T11:45:54;17.38;;;3.35;;
23608;SDS011;11982;50.810;4.442;2022-09-09T11:48:45;15.25;;;2.67;;
23608;SDS011;11982;50.810;4.442;2022-09-09T11:51:30;18.15;;;3.33;;
23608;SDS011;11982;50.810;4.442;2022-09-09T11:54:25;7.18;;;1.90;;
23608;SDS011;11982;50.810;4.442;2022-09-09T11:57:23;15.98;;;2.25;;
23608;SDS011;11982;50.810;4.442;2022-09-09T12:00:00;40.83;;;3.92;;
23608;SDS011;11982;50.810;4.442;2022-09-09T12:02:29;39.33;;;4.30;;
23608;SDS011;11982;50.810;4.442;2022-09-09T12:07:52;17.38;;;2.83;;
23608;SDS011;11982;50.810;4.442;2022-09-09T12:10:27;8.23;;;2.30;;
23608;SDS011;11982;50.810;4.442;2022-09-09T12:15:47;18.63;;;2.70;;
23608;SDS011;11982;50.810;4.442;2022-09-09T12:18:15;17.88;;;2.45;;
23608;SDS011;11982;50.810;4.442;2022-09-09T12:21:35;28.20;;;3.47;;
23608;SDS011;11982;50.810;4.442;2022-09-09T12:24:10;34.38;;;3.67;;
23608;SDS011;11982;50.810;4.442;2022-09-09T12:26:42;28.55;;;3.80;;
23608;SDS011;11982;50.810;4.442;2022-09-09T12:29:18;44.95;;;4.57;;
23608;SDS011;11982;50.810;4.442;2022-09-09T12:34:15;13.02;;;2.20;;
23608;SDS011;11982;50.810;4.442;2022-09-09T12:36:42;12.82;;;2.50;;
23608;SDS011;11982;50.810;4.442;2022-09-09T12:39:21;38.58;;;3.13;;
23608;SDS011;11982;50.810;4.442;2022-09-09T12:42:02;23.13;;;3.85;;
23608;SDS011;11982;50.810;4.442;2022-09-09T12:44:29;36.78;;;3.70;;
23608;SDS011;11982;50.810;4.442;2022-09-09T12:46:58;37.90;;;3.80;;
23608;SDS011;11982;50.810;4.442;2022-09-09T12:52:22;20.30;;;2.22;;
23608;SDS011;11982;50.810;4.442;2022-09-09T12:54:54;25.00;;;2.22;;
23608;SDS011;11982;50.810;4.442;2022-09-09T12:57:22;12.80;;;1.73;;
23608;SDS011;11982;50.810;4.442;2022-09-09T12:59:52;5.60;;;1.33;;
23608;SDS011;11982;50.810;4.442;2022-09-09T13:02:33;37.45;;;3.17;;
23608;SDS011;11982;50.810;4.442;2022-09-09T13:08:08;5.32;;;1.65;;
23608;SDS011;11982;50.810;4.442;2022-09-09T13:10:36;7.72;;;1.92;;
23608;SDS011;11982;50.810;4.442;2022-09-09T13:13:20;12.38;;;2.47;;
23608;SDS011;11982;50.810;4.442;2022-09-09T13:15:55;10.98;;;2.25;;
23608;SDS011;11982;50.810;4.442;2022-09-09T13:18:23;11.93;;;1.83;;
23608;SDS011;11982;50.810;4.442;2022-09-09T13:21:00;14.82;;;2.33;;
23608;SDS011;11982;50.810;4.442;2022-09-09T13:23:28;16.48;;;2.10;;
23608;SDS011;11982;50.810;4.442;2022-09-09T13:25:57;43.30;;;3.88;;
23608;SDS011;11982;50.810;4.442;2022-09-09T13:28:25;28.38;;;3.00;;
23608;SDS011;11982;50.810;4.442;2022-09-09T13:31:00;21.77;;;2.03;;
23608;SDS011;11982;50.810;4.442;2022-09-09T13:38:31;5.18;;;1.67;;
23608;SDS011;11982;50.810;4.442;2022-09-09T13:41:01;21.33;;;2.20;;
23608;SDS011;11982;50.810;4.442;2022-09-09T13:43:53;43.65;;;2.75;;
23608;SDS011;11982;50.810;4.442;2022-09-09T13:51:35;30.95;;;3.13;;
23608;SDS011;11982;50.810;4.442;2022-09-09T13:54:06;7.00;;;1.60;;
23608;SDS011;11982;50.810;4.442;2022-09-09T13:56:34;18.92;;;1.92;;
23608;SDS011;11982;50.810;4.442;2022-09-09T13:59:00;13.13;;;1.70;;
23608;SDS011;11982;50.810;4.442;2022-09-09T14:01:27;8.60;;;1.90;;
23608;SDS011;11982;50.810;4.442;2022-09-09T14:03:53;13.43;;;2.15;;
23608;SDS011;11982;50.810;4.442;2022-09-09T14:06:19;5.90;;;1.77;;
23608;SDS011;11982;50.810;4.442;2022-09-09T14:08:46;12.82;;;2.35;;
23608;SDS011;11982;50.810;4.442;2022-09-09T14:11:13;9.88;;;1.73;;
23608;SDS011;11982;50.810;4.442;2022-09-09T14:13:39;6.78;;;1.40;;
23608;SDS011;11982;50.810;4.442;2022-09-09T14:16:05;7.15;;;1.75;;
23608;SDS011;11982;50.810;4.442;2022-09-09T14:18:31;5.60;;;1.80;;
23608;SDS011;11982;50.810;4.442;2022-09-09T14:20:57;8.43;;;2.08;;
23608;SDS011;11982;50.810;4.442;2022-09-09T14:23:23;7.05;;;1.95;;
23608;SDS011;11982;50.810;4.442;2022-09-09T14:25:49;6.63;;;2.17;;
23608;SDS011;11982;50.810;4.442;2022-09-09T14:28:16;7.85;;;2.03;;
23608;SDS011;11982;50.810;4.442;2022-09-09T14:30:42;7.85;;;1.77;;
23608;SDS011;11982;50.810;4.442;2022-09-09T14:33:13;5.57;;;1.83;;
23608;SDS011;11982;50.810;4.442;2022-09-09T14:35:40;6.18;;;2.40;;
23608;SDS011;11982;50.810;4.442;2022-09-09T14:38:06;6.88;;;1.92;;
23608;SDS011;11982;50.810;4.442;2022-09-09T14:40:33;6.57;;;2.17;;
23608;SDS011;11982;50.810;4.442;2022-09-09T14:43:03;6.82;;;1.58;;
23608;SDS011;11982;50.810;4.442;2022-09-09T14:45:30;10.52;;;2.88;;
23608;SDS011;11982;50.810;4.442;2022-09-09T14:47:56;5.22;;;1.95;;
23608;SDS011;11982;50.810;4.442;2022-09-09T14:50:22;9.35;;;2.10;;
23608;SDS011;11982;50.810;4.442;2022-09-09T14:52:48;5.60;;;1.73;;
23608;SDS011;11982;50.810;4.442;2022-09-09T14:55:15;5.60;;;1.60;;
23608;SDS011;11982;50.810;4.442;2022-09-09T14:57:41;7.40;;;1.55;;
23608;SDS011;11982;50.810;4.442;2022-09-09T15:00:08;7.45;;;1.60;;
23608;SDS011;11982;50.810;4.442;2022-09-09T15:02:35;5.63;;;1.60;;
23608;SDS011;11982;50.810;4.442;2022-09-09T15:05:01;5.07;;;1.60;;
23608;SDS011;11982;50.810;4.442;2022-09-09T15:07:28;5.80;;;1.63;;
23608;SDS011;11982;50.810;4.442;2022-09-09T15:09:53;6.78;;;1.88;;
23608;SDS011;11982;50.810;4.442;2022-09-09T15:12:19;3.97;;;1.52;;
23608;SDS011;11982;50.810;4.442;2022-09-09T15:14:45;9.52;;;2.08;;
23608;SDS011;11982;50.810;4.442;2022-09-09T15:17:12;7.70;;;2.00;;
23608;SDS011;11982;50.810;4.442;2022-09-09T15:19:38;5.63;;;1.60;;
23608;SDS011;11982;50.810;4.442;2022-09-09T15:22:04;8.48;;;1.70;;
23608;SDS011;11982;50.810;4.442;2022-09-09T15:24:31;5.45;;;1.65;;
23608;SDS011;11982;50.810;4.442;2022-09-09T15:26:57;6.40;;;1.95;;
23608;SDS011;11982;50.810;4.442;2022-09-09T15:29:23;8.00;;;1.65;;
23608;SDS011;11982;50.810;4.442;2022-09-09T15:31:49;6.68;;;1.83;;
23608;SDS011;11982;50.810;4.442;2022-09-09T15:34:15;6.28;;;1.95;;
23608;SDS011;11982;50.810;4.442;2022-09-09T15:36:41;7.43;;;1.88;;
23608;SDS011;11982;50.810;4.442;2022-09-09T15:39:09;5.47;;;1.38;;
23608;SDS011;11982;50.810;4.442;2022-09-09T15:41:41;7.82;;;1.70;;
23608;SDS011;11982;50.810;4.442;2022-09-09T15:44:07;5.72;;;1.65;;
23608;SDS011;11982;50.810;4.442;2022-09-09T15:46:37;5.00;;;2.03;;
23608;SDS011;11982;50.810;4.442;2022-09-09T15:51:37;11.02;;;2.83;;
23608;SDS011;11982;50.810;4.442;2022-09-09T15:54:04;7.22;;;1.63;;
23608;SDS011;11982;50.810;4.442;2022-09-09T15:56:37;6.88;;;1.92;;
23608;SDS011;11982;50.810;4.442;2022-09-09T15:59:02;6.05;;;1.63;;
23608;SDS011;11982;50.810;4.442;2022-09-09T16:01:28;5.25;;;1.60;;
23608;SDS011;11982;50.810;4.442;2022-09-09T16:03:55;9.18;;;2.08;;
23608;SDS011;11982;50.810;4.442;2022-09-09T16:06:22;6.28;;;1.70;;
23608;SDS011;11982;50.810;4.442;2022-09-09T16:08:50;6.07;;;1.75;;
23608;SDS011;11982;50.810;4.442;2022-09-09T16:11:25;4.55;;;1.70;;
23608;SDS011;11982;50.810;4.442;2022-09-09T16:16:19;8.43;;;2.45;;
23608;SDS011;11982;50.810;4.442;2022-09-09T16:18:51;7.75;;;2.15;;
23608;SDS011;11982;50.810;4.442;2022-09-09T16:21:20;5.38;;;1.70;;
23608;SDS011;11982;50.810;4.442;2022-09-09T16:23:46;6.35;;;2.00;;
23608;SDS011;11982;50.810;4.442;2022-09-09T16:26:14;6.57;;;1.55;;
23608;SDS011;11982;50.810;4.442;2022-09-09T16:28:41;8.57;;;2.35;;
23608;SDS011;11982;50.810;4.442;2022-09-09T16:31:07;10.30;;;3.20;;
23608;SDS011;11982;50.810;4.442;2022-09-09T16:33:35;9.43;;;2.97;;
23608;SDS011;11982;50.810;4.442;2022-09-09T16:36:07;6.05;;;1.77;;
23608;SDS011;11982;50.810;4.442;2022-09-09T16:38:33;2.28;;;1.45;;
23608;SDS011;11982;50.810;4.442;2022-09-09T16:41:00;5.15;;;1.45;;
23608;SDS011;11982;50.810;4.442;2022-09-09T16:43:27;2.70;;;1.60;;
23608;SDS011;11982;50.810;4.442;2022-09-09T16:45:52;3.17;;;1.52;;
23608;SDS011;11982;50.810;4.442;2022-09-09T16:48:18;2.67;;;1.63;;
23608;SDS011;11982;50.810;4.442;2022-09-09T16:50:45;7.20;;;1.58;;
23608;SDS011;11982;50.810;4.442;2022-09-09T16:53:11;2.55;;;1.65;;
23608;SDS011;11982;50.810;4.442;2022-09-09T16:55:40;4.82;;;1.83;;
23608;SDS011;11982;50.810;4.442;2022-09-09T16:58:07;6.07;;;1.85;;
23608;SDS011;11982;50.810;4.442;2022-09-09T17:00:35;5.28;;;2.03;;
23608;SDS011;11982;50.810;4.442;2022-09-09T17:03:01;6.45;;;1.77;;
23608;SDS011;11982;50.810;4.442;2022-09-09T17:05:27;4.20;;;1.63;;
23608;SDS011;11982;50.810;4.442;2022-09-09T17:07:53;5.50;;;1.80;;
23608;SDS011;11982;50.810;4.442;2022-09-09T17:10:22;3.08;;;1.60;;
23608;SDS011;11982;50.810;4.442;2022-09-09T17:12:49;3.17;;;2.00;;
23608;SDS011;11982;50.810;4.442;2022-09-09T17:15:14;6.90;;;2.30;;
23608;SDS011;11982;50.810;4.442;2022-09-09T17:17:40;7.05;;;2.33;;
23608;SDS011;11982;50.810;4.442;2022-09-09T17:20:10;8.68;;;2.90;;
23608;SDS011;11982;50.810;4.442;2022-09-09T17:22:35;12.27;;;2.78;;
23608;SDS011;11982;50.810;4.442;2022-09-09T17:25:01;8.50;;;2.63;;
23608;SDS011;11982;50.810;4.442;2022-09-09T17:27:28;9.98;;;2.58;;
23608;SDS011;11982;50.810;4.442;2022-09-09T17:29:56;7.47;;;2.65;;